sensor_id;sensor_type;location;lat;lon;timestamp;P1;durP1;ratioP1;P2;durP2;ratioP2
66581;SDS011;53438;48.898;2.308;2023-06-14T03:01:06;8.70;;;6.32;;
66581;SDS011;53438;48.898;2.308;2023-06-14T03:03:32;9.88;;;6.47;;
66581;SDS011;53438;48.898;2.308;2023-06-14T03:05:58;11.27;;;6.55;;
66581;SDS011;53438;48.898;2.308;2023-06-14T03:08:30;10.85;;;6.40;;
66581;SDS011;53438;48.898;2.308;2023-06-14T03:10:56;8.05;;;5.93;;
66581;SDS011;53438;48.898;2.308;2023-06-14T03:13:22;8.07;;;5.83;;
66581;SDS011;53438;48.898;2.308;2023-06-14T03:15:48;7.45;;;5.78;;
66581;SDS011;53438;48.898;2.308;2023-06-14T03:18:17;7.10;;;5.93;;
66581;SDS011;53438;48.898;2.308;2023-06-14T03:20:42;11.10;;;6.50;;
66581;SDS011;53438;48.898;2.308;2023-06-14T03:23:10;7.75;;;5.93;;
66581;SDS011;53438;48.898;2.308;2023-06-14T03:25:36;9.50;;;6.10;;
66581;SDS011;53438;48.898;2.308;2023-06-14T03:28:03;9.63;;;6.10;;
66581;SDS011;53438;48.898;2.308;2023-06-14T03:30:31;11.23;;;6.95;;
66581;SDS011;53438;48.898;2.308;2023-06-14T03:32:57;8.77;;;5.80;;
66581;SDS011;53438;48.898;2.308;2023-06-14T03:35:23;7.57;;;6.40;;
66581;SDS011;53438;48.898;2.308;2023-06-14T03:37:48;10.33;;;6.30;;
66581;SDS011;53438;48.898;2.308;2023-06-14T03:40:15;7.95;;;5.57;;
66581;SDS011;53438;48.898;2.308;2023-06-14T03:42:41;9.90;;;6.32;;
66581;SDS011;53438;48.898;2.308;2023-06-14T03:45:07;9.63;;;6.33;;
66581;SDS011;53438;48.898;2.308;2023-06-14T03:47:34;9.03;;;5.87;;
66581;SDS011;53438;48.898;2.308;2023-06-14T03:50:00;10.02;;;6.40;;
66581;SDS011;53438;48.898;2.308;2023-06-14T03:52:27;11.60;;;5.70;;
66581;SDS011;53438;48.898;2.308;2023-06-14T03:54:54;8.07;;;5.60;;
66581;SDS011;53438;48.898;2.308;2023-06-14T03:57:19;8.05;;;5.82;;
66581;SDS011;53438;48.898;2.308;2023-06-14T03:59:45;8.70;;;5.70;;
66581;SDS011;53438;48.898;2.308;2023-06-14T04:02:10;11.98;;;6.60;;
66581;SDS011;53438;48.898;2.308;2023-06-14T04:04:36;9.13;;;6.15;;
66581;SDS011;53438;48.898;2.308;2023-06-14T04:07:02;8.73;;;6.40;;
66581;SDS011;53438;48.898;2.308;2023-06-14T04:09:31;8.77;;;6.10;;
66581;SDS011;53438;48.898;2.308;2023-06-14T04:11:56;9.65;;;5.75;;
66581;SDS011;53438;48.898;2.308;2023-06-14T04:14:22;8.53;;;5.70;;
66581;SDS011;53438;48.898;2.308;2023-06-14T04:16:47;9.70;;;6.40;;
66581;SDS011;53438;48.898;2.308;2023-06-14T04:19:14;8.15;;;6.07;;
66581;SDS011;53438;48.898;2.308;2023-06-14T04:21:40;10.35;;;6.53;;
66581;SDS011;53438;48.898;2.308;2023-06-14T04:24:05;8.93;;;6.38;;
66581;SDS011;53438;48.898;2.308;2023-06-14T04:26:31;10.77;;;6.53;;
66581;SDS011;53438;48.898;2.308;2023-06-14T04:28:59;8.30;;;6.25;;
66581;SDS011;53438;48.898;2.308;2023-06-14T04:31:27;12.50;;;7.25;;
66581;SDS011;53438;48.898;2.308;2023-06-14T04:33:58;10.65;;;6.85;;
66581;SDS011;53438;48.898;2.308;2023-06-14T04:36:24;10.30;;;6.00;;
66581;SDS011;53438;48.898;2.308;2023-06-14T04:38:51;9.15;;;5.93;;
66581;SDS011;53438;48.898;2.308;2023-06-14T04:41:19;14.98;;;6.80;;
66581;SDS011;53438;48.898;2.308;2023-06-14T04:43:45;9.93;;;7.32;;
66581;SDS011;53438;48.898;2.308;2023-06-14T04:46:13;8.80;;;5.63;;
66581;SDS011;53438;48.898;2.308;2023-06-14T04:48:39;12.27;;;7.67;;
66581;SDS011;53438;48.898;2.308;2023-06-14T04:51:07;10.95;;;6.72;;
66581;SDS011;53438;48.898;2.308;2023-06-14T04:53:33;11.38;;;6.95;;
66581;SDS011;53438;48.898;2.308;2023-06-14T04:55:59;16.50;;;6.27;;
66581;SDS011;53438;48.898;2.308;2023-06-14T04:58:26;9.50;;;6.40;;
66581;SDS011;53438;48.898;2.308;2023-06-14T05:00:52;10.10;;;7.63;;
66581;SDS011;53438;48.898;2.308;2023-06-14T05:03:18;10.93;;;6.63;;
66581;SDS011;53438;48.898;2.308;2023-06-14T05:05:45;11.37;;;6.63;;
66581;SDS011;53438;48.898;2.308;2023-06-14T05:08:11;11.23;;;7.15;;
66581;SDS011;53438;48.898;2.308;2023-06-14T05:10:36;13.07;;;6.83;;
66581;SDS011;53438;48.898;2.308;2023-06-14T05:13:02;11.77;;;7.30;;
66581;SDS011;53438;48.898;2.308;2023-06-14T05:15:27;11.50;;;7.53;;
66581;SDS011;53438;48.898;2.308;2023-06-14T05:17:54;14.73;;;7.18;;
66581;SDS011;53438;48.898;2.308;2023-06-14T05:20:24;12.13;;;7.25;;
66581;SDS011;53438;48.898;2.308;2023-06-14T05:22:53;14.05;;;7.18;;
66581;SDS011;53438;48.898;2.308;2023-06-14T05:25:19;13.02;;;6.40;;
66581;SDS011;53438;48.898;2.308;2023-06-14T05:27:45;12.27;;;6.80;;
66581;SDS011;53438;48.898;2.308;2023-06-14T05:30:11;9.65;;;6.45;;
66581;SDS011;53438;48.898;2.308;2023-06-14T05:32:37;11.32;;;7.45;;
66581;SDS011;53438;48.898;2.308;2023-06-14T05:35:03;12.80;;;7.83;;
66581;SDS011;53438;48.898;2.308;2023-06-14T05:37:29;13.68;;;7.60;;
66581;SDS011;53438;48.898;2.308;2023-06-14T05:39:54;9.27;;;6.80;;
66581;SDS011;53438;48.898;2.308;2023-06-14T05:42:19;10.70;;;7.13;;
66581;SDS011;53438;48.898;2.308;2023-06-14T05:44:45;9.80;;;6.73;;
66581;SDS011;53438;48.898;2.308;2023-06-14T05:47:10;10.77;;;7.40;;
66581;SDS011;53438;48.898;2.308;2023-06-14T05:49:36;11.77;;;7.13;;
66581;SDS011;53438;48.898;2.308;2023-06-14T05:52:01;11.70;;;7.03;;
66581;SDS011;53438;48.898;2.308;2023-06-14T05:54:26;10.60;;;7.50;;
66581;SDS011;53438;48.898;2.308;2023-06-14T05:56:52;12.33;;;7.33;;
66581;SDS011;53438;48.898;2.308;2023-06-14T05:59:17;11.27;;;6.43;;
66581;SDS011;53438;48.898;2.308;2023-06-14T06:01:42;11.50;;;6.73;;
66581;SDS011;53438;48.898;2.308;2023-06-14T06:04:08;10.02;;;6.30;;
66581;SDS011;53438;48.898;2.308;2023-06-14T06:06:34;9.60;;;6.30;;
66581;SDS011;53438;48.898;2.308;2023-06-14T06:09:00;9.63;;;6.40;;
66581;SDS011;53438;48.898;2.308;2023-06-14T06:11:26;9.23;;;6.50;;
66581;SDS011;53438;48.898;2.308;2023-06-14T06:13:51;12.93;;;6.77;;
66581;SDS011;53438;48.898;2.308;2023-06-14T06:16:16;13.97;;;6.60;;
66581;SDS011;53438;48.898;2.308;2023-06-14T06:18:42;13.20;;;6.57;;
66581;SDS011;53438;48.898;2.308;2023-06-14T06:21:07;10.47;;;7.10;;
66581;SDS011;53438;48.898;2.308;2023-06-14T06:23:32;13.20;;;6.77;;
66581;SDS011;53438;48.898;2.308;2023-06-14T06:25:58;11.73;;;6.97;;
66581;SDS011;53438;48.898;2.308;2023-06-14T06:28:24;10.90;;;6.30;;
66581;SDS011;53438;48.898;2.308;2023-06-14T06:30:49;9.02;;;6.18;;
66581;SDS011;53438;48.898;2.308;2023-06-14T06:33:15;10.88;;;6.72;;
66581;SDS011;53438;48.898;2.308;2023-06-14T06:35:42;11.55;;;6.70;;
66581;SDS011;53438;48.898;2.308;2023-06-14T06:38:07;18.40;;;9.13;;
66581;SDS011;53438;48.898;2.308;2023-06-14T06:40:34;11.33;;;6.63;;
66581;SDS011;53438;48.898;2.308;2023-06-14T06:43:01;9.75;;;6.18;;
66581;SDS011;53438;48.898;2.308;2023-06-14T06:45:27;12.45;;;6.15;;
66581;SDS011;53438;48.898;2.308;2023-06-14T06:47:53;17.00;;;6.37;;
66581;SDS011;53438;48.898;2.308;2023-06-14T06:50:18;17.30;;;6.47;;
66581;SDS011;53438;48.898;2.308;2023-06-14T06:52:44;13.77;;;6.28;;
66581;SDS011;53438;48.898;2.308;2023-06-14T06:55:10;16.50;;;6.30;;
66581;SDS011;53438;48.898;2.308;2023-06-14T06:57:36;15.63;;;6.47;;
66581;SDS011;53438;48.898;2.308;2023-06-14T07:00:01;13.07;;;6.33;;
66581;SDS011;53438;48.898;2.308;2023-06-14T07:02:29;11.75;;;6.10;;
66581;SDS011;53438;48.898;2.308;2023-06-14T07:04:55;14.70;;;6.63;;
66581;SDS011;53438;48.898;2.308;2023-06-14T07:07:21;15.73;;;7.23;;
66581;SDS011;53438;48.898;2.308;2023-06-14T07:09:46;16.00;;;6.20;;
66581;SDS011;53438;48.898;2.308;2023-06-14T07:12:13;12.80;;;5.30;;
66581;SDS011;53438;48.898;2.308;2023-06-14T07:14:38;9.93;;;5.70;;
66581;SDS011;53438;48.898;2.308;2023-06-14T07:17:03;14.27;;;6.43;;
66581;SDS011;53438;48.898;2.308;2023-06-14T07:19:29;12.65;;;5.60;;
66581;SDS011;53438;48.898;2.308;2023-06-14T07:21:55;10.27;;;6.00;;
66581;SDS011;53438;48.898;2.308;2023-06-14T07:24:21;9.43;;;6.07;;
66581;SDS011;53438;48.898;2.308;2023-06-14T07:26:46;20.33;;;6.28;;
66581;SDS011;53438;48.898;2.308;2023-06-14T07:29:13;12.27;;;5.80;;
66581;SDS011;53438;48.898;2.308;2023-06-14T07:31:38;16.45;;;5.88;;
66581;SDS011;53438;48.898;2.308;2023-06-14T07:34:04;13.80;;;5.90;;
66581;SDS011;53438;48.898;2.308;2023-06-14T07:36:29;13.50;;;6.03;;
66581;SDS011;53438;48.898;2.308;2023-06-14T07:38:54;9.37;;;6.00;;
66581;SDS011;53438;48.898;2.308;2023-06-14T07:41:20;11.10;;;5.97;;
66581;SDS011;53438;48.898;2.308;2023-06-14T07:43:45;11.05;;;5.90;;
66581;SDS011;53438;48.898;2.308;2023-06-14T07:46:10;11.60;;;5.53;;
66581;SDS011;53438;48.898;2.308;2023-06-14T07:48:36;11.63;;;6.27;;
66581;SDS011;53438;48.898;2.308;2023-06-14T07:51:02;14.70;;;6.07;;
66581;SDS011;53438;48.898;2.308;2023-06-14T07:53:27;12.10;;;6.10;;
66581;SDS011;53438;48.898;2.308;2023-06-14T07:55:53;9.83;;;5.90;;
66581;SDS011;53438;48.898;2.308;2023-06-14T07:58:18;12.87;;;6.10;;
66581;SDS011;53438;48.898;2.308;2023-06-14T08:00:43;9.13;;;5.67;;
66581;SDS011;53438;48.898;2.308;2023-06-14T08:03:09;10.32;;;5.65;;
66581;SDS011;53438;48.898;2.308;2023-06-14T08:05:35;13.30;;;6.28;;
66581;SDS011;53438;48.898;2.308;2023-06-14T08:08:00;12.03;;;5.17;;
66581;SDS011;53438;48.898;2.308;2023-06-14T08:10:25;12.33;;;6.37;;
66581;SDS011;53438;48.898;2.308;2023-06-14T08:12:51;10.30;;;5.87;;
66581;SDS011;53438;48.898;2.308;2023-06-14T08:15:16;11.33;;;5.57;;
66581;SDS011;53438;48.898;2.308;2023-06-14T08:17:43;10.77;;;5.77;;
66581;SDS011;53438;48.898;2.308;2023-06-14T08:20:09;12.73;;;6.60;;
66581;SDS011;53438;48.898;2.308;2023-06-14T08:22:35;16.05;;;5.80;;
66581;SDS011;53438;48.898;2.308;2023-06-14T08:25:01;9.57;;;6.07;;
66581;SDS011;53438;48.898;2.308;2023-06-14T08:27:26;12.87;;;6.33;;
66581;SDS011;53438;48.898;2.308;2023-06-14T08:29:52;11.23;;;5.78;;
66581;SDS011;53438;48.898;2.308;2023-06-14T08:32:18;10.60;;;6.10;;
66581;SDS011;53438;48.898;2.308;2023-06-14T08:34:43;14.60;;;5.93;;
66581;SDS011;53438;48.898;2.308;2023-06-14T08:37:08;10.47;;;5.77;;
66581;SDS011;53438;48.898;2.308;2023-06-14T08:39:34;10.03;;;6.00;;
66581;SDS011;53438;48.898;2.308;2023-06-14T08:41:59;12.23;;;5.78;;
66581;SDS011;53438;48.898;2.308;2023-06-14T08:44:27;10.10;;;5.70;;
66581;SDS011;53438;48.898;2.308;2023-06-14T08:46:52;10.43;;;6.00;;
66581;SDS011;53438;48.898;2.308;2023-06-14T08:49:24;11.20;;;6.07;;
66581;SDS011;53438;48.898;2.308;2023-06-14T08:51:50;14.27;;;6.22;;
66581;SDS011;53438;48.898;2.308;2023-06-14T08:54:22;12.77;;;5.38;;
66581;SDS011;53438;48.898;2.308;2023-06-14T08:56:49;10.98;;;6.18;;
66581;SDS011;53438;48.898;2.308;2023-06-14T08:59:16;12.00;;;5.90;;
66581;SDS011;53438;48.898;2.308;2023-06-14T09:01:43;11.70;;;4.78;;
66581;SDS011;53438;48.898;2.308;2023-06-14T09:04:11;11.45;;;5.80;;
66581;SDS011;53438;48.898;2.308;2023-06-14T09:06:36;8.07;;;4.50;;
66581;SDS011;53438;48.898;2.308;2023-06-14T09:09:02;11.27;;;5.60;;
66581;SDS011;53438;48.898;2.308;2023-06-14T09:11:29;10.20;;;6.50;;
66581;SDS011;53438;48.898;2.308;2023-06-14T09:13:55;8.40;;;5.82;;
66581;SDS011;53438;48.898;2.308;2023-06-14T09:16:20;10.83;;;6.07;;
66581;SDS011;53438;48.898;2.308;2023-06-14T09:18:46;9.57;;;5.70;;
66581;SDS011;53438;48.898;2.308;2023-06-14T09:21:13;10.15;;;5.20;;
66581;SDS011;53438;48.898;2.308;2023-06-14T09:23:41;8.00;;;4.85;;
66581;SDS011;53438;48.898;2.308;2023-06-14T09:26:08;9.68;;;5.32;;
66581;SDS011;53438;48.898;2.308;2023-06-14T09:28:33;12.98;;;4.97;;
66581;SDS011;53438;48.898;2.308;2023-06-14T09:30:59;11.70;;;4.50;;
66581;SDS011;53438;48.898;2.308;2023-06-14T09:33:25;6.20;;;4.15;;
66581;SDS011;53438;48.898;2.308;2023-06-14T09:35:53;8.40;;;4.23;;
66581;SDS011;53438;48.898;2.308;2023-06-14T09:38:20;7.68;;;4.32;;
66581;SDS011;53438;48.898;2.308;2023-06-14T09:40:46;7.50;;;4.93;;
66581;SDS011;53438;48.898;2.308;2023-06-14T09:43:11;9.60;;;3.90;;
66581;SDS011;53438;48.898;2.308;2023-06-14T09:45:38;6.37;;;4.17;;
66581;SDS011;53438;48.898;2.308;2023-06-14T09:48:05;8.35;;;4.60;;
66581;SDS011;53438;48.898;2.308;2023-06-14T09:50:33;7.17;;;4.13;;
66581;SDS011;53438;48.898;2.308;2023-06-14T09:53:03;6.75;;;4.13;;
66581;SDS011;53438;48.898;2.308;2023-06-14T09:55:34;6.15;;;4.28;;
66581;SDS011;53438;48.898;2.308;2023-06-14T09:58:02;8.45;;;4.38;;
66581;SDS011;53438;48.898;2.308;2023-06-14T10:00:31;8.68;;;4.65;;
66581;SDS011;53438;48.898;2.308;2023-06-14T10:03:00;6.77;;;4.40;;
66581;SDS011;53438;48.898;2.308;2023-06-14T10:05:29;6.43;;;4.45;;
66581;SDS011;53438;48.898;2.308;2023-06-14T10:08:04;10.38;;;4.75;;
66581;SDS011;53438;48.898;2.308;2023-06-14T10:10:33;9.07;;;5.30;;
66581;SDS011;53438;48.898;2.308;2023-06-14T10:12:59;8.67;;;4.43;;
66581;SDS011;53438;48.898;2.308;2023-06-14T10:18:49;8.10;;;4.63;;
66581;SDS011;53438;48.898;2.308;2023-06-14T10:21:41;6.63;;;4.90;;
66581;SDS011;53438;48.898;2.308;2023-06-14T10:24:14;7.10;;;4.63;;
66581;SDS011;53438;48.898;2.308;2023-06-14T10:26:53;8.27;;;4.67;;
66581;SDS011;53438;48.898;2.308;2023-06-14T10:29:21;8.48;;;4.75;;
66581;SDS011;53438;48.898;2.308;2023-06-14T10:31:47;6.27;;;4.67;;
66581;SDS011;53438;48.898;2.308;2023-06-14T10:34:29;9.65;;;5.40;;
66581;SDS011;53438;48.898;2.308;2023-06-14T10:37:12;5.10;;;4.60;;
66581;SDS011;53438;48.898;2.308;2023-06-14T10:39:41;6.03;;;4.30;;
66581;SDS011;53438;48.898;2.308;2023-06-14T10:42:10;8.80;;;4.80;;
66581;SDS011;53438;48.898;2.308;2023-06-14T10:44:54;5.97;;;4.63;;
66581;SDS011;53438;48.898;2.308;2023-06-14T10:49:57;9.07;;;5.55;;
66581;SDS011;53438;48.898;2.308;2023-06-14T10:52:34;7.63;;;4.37;;
66581;SDS011;53438;48.898;2.308;2023-06-14T10:57:43;6.03;;;4.68;;
66581;SDS011;53438;48.898;2.308;2023-06-14T11:00:21;7.35;;;4.60;;
66581;SDS011;53438;48.898;2.308;2023-06-14T11:10:54;7.32;;;4.70;;
66581;SDS011;53438;48.898;2.308;2023-06-14T11:13:24;11.50;;;6.68;;
66581;SDS011;53438;48.898;2.308;2023-06-14T11:15:50;7.20;;;4.80;;
66581;SDS011;53438;48.898;2.308;2023-06-14T11:18:18;6.80;;;4.93;;
66581;SDS011;53438;48.898;2.308;2023-06-14T11:20:45;6.77;;;5.20;;
66581;SDS011;53438;48.898;2.308;2023-06-14T11:23:11;9.85;;;4.88;;
66581;SDS011;53438;48.898;2.308;2023-06-14T11:25:37;5.73;;;4.77;;
66581;SDS011;53438;48.898;2.308;2023-06-14T11:28:02;7.10;;;4.50;;
66581;SDS011;53438;48.898;2.308;2023-06-14T11:30:27;5.80;;;4.83;;
66581;SDS011;53438;48.898;2.308;2023-06-14T11:32:53;7.00;;;4.40;;
66581;SDS011;53438;48.898;2.308;2023-06-14T11:35:21;5.40;;;4.57;;
66581;SDS011;53438;48.898;2.308;2023-06-14T11:37:54;7.28;;;4.88;;
66581;SDS011;53438;48.898;2.308;2023-06-14T11:40:25;6.88;;;4.78;;
66581;SDS011;53438;48.898;2.308;2023-06-14T11:42:57;6.50;;;4.75;;
66581;SDS011;53438;48.898;2.308;2023-06-14T11:45:24;5.43;;;4.93;;
66581;SDS011;53438;48.898;2.308;2023-06-14T11:47:50;9.43;;;5.23;;
66581;SDS011;53438;48.898;2.308;2023-06-14T11:50:15;6.53;;;4.87;;
66581;SDS011;53438;48.898;2.308;2023-06-14T11:52:41;6.10;;;4.77;;
66581;SDS011;53438;48.898;2.308;2023-06-14T11:55:06;5.45;;;4.43;;
66581;SDS011;53438;48.898;2.308;2023-06-14T11:57:35;10.90;;;5.90;;
66581;SDS011;53438;48.898;2.308;2023-06-14T12:00:04;6.32;;;4.10;;
66581;SDS011;53438;48.898;2.308;2023-06-14T12:02:32;7.30;;;4.80;;
66581;SDS011;53438;48.898;2.308;2023-06-14T12:05:03;6.00;;;4.60;;
66581;SDS011;53438;48.898;2.308;2023-06-14T12:07:37;7.22;;;5.15;;
66581;SDS011;53438;48.898;2.308;2023-06-14T12:10:05;6.30;;;4.88;;
66581;SDS011;53438;48.898;2.308;2023-06-14T12:12:34;6.33;;;4.50;;
66581;SDS011;53438;48.898;2.308;2023-06-14T12:15:05;5.85;;;4.60;;
66581;SDS011;53438;48.898;2.308;2023-06-14T12:17:35;7.68;;;4.57;;
66581;SDS011;53438;48.898;2.308;2023-06-14T12:20:08;14.27;;;5.20;;
66581;SDS011;53438;48.898;2.308;2023-06-14T12:22:36;6.38;;;4.80;;
66581;SDS011;53438;48.898;2.308;2023-06-14T12:25:03;8.77;;;4.80;;
66581;SDS011;53438;48.898;2.308;2023-06-14T12:27:29;9.25;;;5.20;;
66581;SDS011;53438;48.898;2.308;2023-06-14T12:30:01;6.63;;;4.77;;
66581;SDS011;53438;48.898;2.308;2023-06-14T12:32:28;6.65;;;5.10;;
66581;SDS011;53438;48.898;2.308;2023-06-14T12:34:54;7.82;;;4.43;;
66581;SDS011;53438;48.898;2.308;2023-06-14T12:37:19;6.93;;;4.50;;
66581;SDS011;53438;48.898;2.308;2023-06-14T12:39:45;5.97;;;4.87;;
66581;SDS011;53438;48.898;2.308;2023-06-14T12:42:10;9.02;;;4.93;;
66581;SDS011;53438;48.898;2.308;2023-06-14T12:44:36;7.13;;;5.07;;
66581;SDS011;53438;48.898;2.308;2023-06-14T12:47:05;6.88;;;4.72;;
66581;SDS011;53438;48.898;2.308;2023-06-14T12:49:32;7.10;;;4.57;;
66581;SDS011;53438;48.898;2.308;2023-06-14T12:51:58;7.53;;;4.65;;
66581;SDS011;53438;48.898;2.308;2023-06-14T12:54:23;7.50;;;4.90;;
66581;SDS011;53438;48.898;2.308;2023-06-14T12:56:50;6.80;;;4.60;;
66581;SDS011;53438;48.898;2.308;2023-06-14T12:59:16;6.23;;;4.43;;
66581;SDS011;53438;48.898;2.308;2023-06-14T13:01:43;8.25;;;4.82;;
66581;SDS011;53438;48.898;2.308;2023-06-14T13:04:09;5.25;;;4.80;;
66581;SDS011;53438;48.898;2.308;2023-06-14T13:06:35;6.60;;;4.87;;
66581;SDS011;53438;48.898;2.308;2023-06-14T13:09:00;10.35;;;5.43;;
66581;SDS011;53438;48.898;2.308;2023-06-14T13:11:26;9.53;;;4.40;;
66581;SDS011;53438;48.898;2.308;2023-06-14T13:13:52;5.32;;;4.50;;
66581;SDS011;53438;48.898;2.308;2023-06-14T13:16:17;7.33;;;5.20;;
66581;SDS011;53438;48.898;2.308;2023-06-14T13:18:42;6.63;;;4.87;;
66581;SDS011;53438;48.898;2.308;2023-06-14T13:21:09;6.50;;;4.50;;
66581;SDS011;53438;48.898;2.308;2023-06-14T13:23:34;10.50;;;8.13;;
66581;SDS011;53438;48.898;2.308;2023-06-14T13:25:59;5.97;;;5.37;;
66581;SDS011;53438;48.898;2.308;2023-06-14T13:28:25;7.57;;;4.93;;
66581;SDS011;53438;48.898;2.308;2023-06-14T13:30:51;6.22;;;4.57;;
66581;SDS011;53438;48.898;2.308;2023-06-14T13:33:16;8.87;;;4.60;;
66581;SDS011;53438;48.898;2.308;2023-06-14T13:35:43;8.60;;;4.40;;
66581;SDS011;53438;48.898;2.308;2023-06-14T13:38:09;5.13;;;4.50;;
66581;SDS011;53438;48.898;2.308;2023-06-14T13:40:35;7.63;;;4.60;;
66581;SDS011;53438;48.898;2.308;2023-06-14T13:43:01;6.00;;;4.50;;
66581;SDS011;53438;48.898;2.308;2023-06-14T13:45:26;5.07;;;4.57;;
66581;SDS011;53438;48.898;2.308;2023-06-14T13:47:52;7.97;;;4.93;;
66581;SDS011;53438;48.898;2.308;2023-06-14T13:50:17;7.82;;;4.47;;
66581;SDS011;53438;48.898;2.308;2023-06-14T13:52:42;7.23;;;5.17;;
66581;SDS011;53438;48.898;2.308;2023-06-14T13:55:08;8.10;;;4.70;;
66581;SDS011;53438;48.898;2.308;2023-06-14T13:57:34;6.60;;;4.82;;
66581;SDS011;53438;48.898;2.308;2023-06-14T14:00:00;5.53;;;4.60;;
66581;SDS011;53438;48.898;2.308;2023-06-14T14:02:28;5.70;;;4.65;;
66581;SDS011;53438;48.898;2.308;2023-06-14T14:04:54;5.37;;;4.20;;
66581;SDS011;53438;48.898;2.308;2023-06-14T14:07:20;6.63;;;5.30;;
66581;SDS011;53438;48.898;2.308;2023-06-14T14:09:47;6.53;;;4.82;;
66581;SDS011;53438;48.898;2.308;2023-06-14T14:12:12;5.73;;;4.43;;
66581;SDS011;53438;48.898;2.308;2023-06-14T14:14:39;6.35;;;4.68;;
66581;SDS011;53438;48.898;2.308;2023-06-14T14:17:04;7.68;;;4.40;;
66581;SDS011;53438;48.898;2.308;2023-06-14T14:19:30;7.03;;;4.97;;
66581;SDS011;53438;48.898;2.308;2023-06-14T14:21:55;6.93;;;4.50;;
66581;SDS011;53438;48.898;2.308;2023-06-14T14:24:21;7.67;;;4.83;;
66581;SDS011;53438;48.898;2.308;2023-06-14T14:26:46;6.03;;;5.00;;
66581;SDS011;53438;48.898;2.308;2023-06-14T14:29:15;5.40;;;4.53;;
66581;SDS011;53438;48.898;2.308;2023-06-14T14:31:41;6.55;;;4.60;;
66581;SDS011;53438;48.898;2.308;2023-06-14T14:34:06;6.13;;;4.70;;
66581;SDS011;53438;48.898;2.308;2023-06-14T14:36:31;5.70;;;4.60;;
66581;SDS011;53438;48.898;2.308;2023-06-14T14:38:59;9.23;;;5.18;;
66581;SDS011;53438;48.898;2.308;2023-06-14T14:41:24;7.43;;;5.17;;
66581;SDS011;53438;48.898;2.308;2023-06-14T14:43:50;6.83;;;4.50;;
66581;SDS011;53438;48.898;2.308;2023-06-14T14:46:15;5.80;;;4.00;;
66581;SDS011;53438;48.898;2.308;2023-06-14T14:48:41;4.53;;;3.72;;
66581;SDS011;53438;48.898;2.308;2023-06-14T14:51:07;7.60;;;4.40;;
66581;SDS011;53438;48.898;2.308;2023-06-14T14:53:32;7.33;;;4.30;;
66581;SDS011;53438;48.898;2.308;2023-06-14T14:55:58;6.63;;;4.30;;
66581;SDS011;53438;48.898;2.308;2023-06-14T14:58:23;5.23;;;4.37;;
66581;SDS011;53438;48.898;2.308;2023-06-14T15:00:48;7.10;;;5.30;;
66581;SDS011;53438;48.898;2.308;2023-06-14T15:03:14;5.70;;;4.28;;
66581;SDS011;53438;48.898;2.308;2023-06-14T15:05:39;7.23;;;4.90;;
66581;SDS011;53438;48.898;2.308;2023-06-14T15:08:05;6.05;;;4.55;;
66581;SDS011;53438;48.898;2.308;2023-06-14T15:10:36;6.90;;;4.97;;
66581;SDS011;53438;48.898;2.308;2023-06-14T15:13:05;8.75;;;5.03;;
66581;SDS011;53438;48.898;2.308;2023-06-14T15:15:30;6.95;;;4.88;;
66581;SDS011;53438;48.898;2.308;2023-06-14T15:17:56;5.63;;;4.33;;
66581;SDS011;53438;48.898;2.308;2023-06-14T15:20:21;8.10;;;5.47;;
66581;SDS011;53438;48.898;2.308;2023-06-14T15:22:47;9.77;;;5.13;;
66581;SDS011;53438;48.898;2.308;2023-06-14T15:25:13;6.77;;;4.70;;
66581;SDS011;53438;48.898;2.308;2023-06-14T15:27:38;6.67;;;4.63;;
66581;SDS011;53438;48.898;2.308;2023-06-14T15:30:03;5.83;;;4.60;;
66581;SDS011;53438;48.898;2.308;2023-06-14T15:32:29;7.03;;;4.60;;
66581;SDS011;53438;48.898;2.308;2023-06-14T15:34:55;7.10;;;4.90;;
66581;SDS011;53438;48.898;2.308;2023-06-14T15:37:20;10.53;;;4.90;;
66581;SDS011;53438;48.898;2.308;2023-06-14T15:39:45;8.97;;;6.00;;
66581;SDS011;53438;48.898;2.308;2023-06-14T15:42:11;9.10;;;5.68;;
66581;SDS011;53438;48.898;2.308;2023-06-14T15:44:36;9.27;;;5.20;;
66581;SDS011;53438;48.898;2.308;2023-06-14T15:47:02;7.87;;;5.80;;
66581;SDS011;53438;48.898;2.308;2023-06-14T15:49:27;7.00;;;5.15;;
66581;SDS011;53438;48.898;2.308;2023-06-14T15:51:53;5.70;;;5.10;;
66581;SDS011;53438;48.898;2.308;2023-06-14T15:54:18;5.80;;;4.17;;
66581;SDS011;53438;48.898;2.308;2023-06-14T15:56:44;8.20;;;4.60;;
66581;SDS011;53438;48.898;2.308;2023-06-14T15:59:10;5.90;;;5.07;;
66581;SDS011;53438;48.898;2.308;2023-06-14T16:01:36;5.60;;;4.72;;
66581;SDS011;53438;48.898;2.308;2023-06-14T16:04:01;9.80;;;5.07;;
66581;SDS011;53438;48.898;2.308;2023-06-14T16:06:27;5.82;;;5.30;;
66581;SDS011;53438;48.898;2.308;2023-06-14T16:08:52;5.33;;;4.83;;
66581;SDS011;53438;48.898;2.308;2023-06-14T16:11:18;5.80;;;5.17;;
66581;SDS011;53438;48.898;2.308;2023-06-14T16:13:44;7.40;;;5.20;;
66581;SDS011;53438;48.898;2.308;2023-06-14T16:16:10;9.77;;;5.80;;
66581;SDS011;53438;48.898;2.308;2023-06-14T16:18:35;6.00;;;4.85;;
66581;SDS011;53438;48.898;2.308;2023-06-14T16:21:01;6.70;;;4.73;;
66581;SDS011;53438;48.898;2.308;2023-06-14T16:23:26;7.40;;;5.13;;
66581;SDS011;53438;48.898;2.308;2023-06-14T16:25:52;7.47;;;5.00;;
66581;SDS011;53438;48.898;2.308;2023-06-14T16:28:17;6.30;;;5.27;;
66581;SDS011;53438;48.898;2.308;2023-06-14T16:30:42;6.53;;;5.53;;
66581;SDS011;53438;48.898;2.308;2023-06-14T16:33:08;10.20;;;5.77;;
66581;SDS011;53438;48.898;2.308;2023-06-14T16:35:33;10.30;;;5.40;;
66581;SDS011;53438;48.898;2.308;2023-06-14T16:37:58;8.90;;;5.33;;
66581;SDS011;53438;48.898;2.308;2023-06-14T16:40:25;9.27;;;5.30;;
66581;SDS011;53438;48.898;2.308;2023-06-14T16:42:50;7.65;;;4.63;;
66581;SDS011;53438;48.898;2.308;2023-06-14T16:45:16;8.57;;;5.30;;
66581;SDS011;53438;48.898;2.308;2023-06-14T16:47:42;7.43;;;4.83;;
66581;SDS011;53438;48.898;2.308;2023-06-14T16:50:07;7.60;;;5.37;;
66581;SDS011;53438;48.898;2.308;2023-06-14T16:52:33;6.47;;;5.05;;
66581;SDS011;53438;48.898;2.308;2023-06-14T16:54:58;8.40;;;5.10;;
66581;SDS011;53438;48.898;2.308;2023-06-14T16:57:24;7.03;;;5.60;;
66581;SDS011;53438;48.898;2.308;2023-06-14T16:59:49;8.18;;;5.30;;
66581;SDS011;53438;48.898;2.308;2023-06-14T17:02:15;8.97;;;7.03;;
66581;SDS011;53438;48.898;2.308;2023-06-14T17:04:40;7.13;;;5.50;;
66581;SDS011;53438;48.898;2.308;2023-06-14T17:07:06;10.10;;;5.00;;
66581;SDS011;53438;48.898;2.308;2023-06-14T17:09:31;6.20;;;5.05;;
66581;SDS011;53438;48.898;2.308;2023-06-14T17:11:57;9.10;;;5.43;;
66581;SDS011;53438;48.898;2.308;2023-06-14T17:14:22;7.83;;;5.77;;
66581;SDS011;53438;48.898;2.308;2023-06-14T17:16:48;5.57;;;5.07;;
66581;SDS011;53438;48.898;2.308;2023-06-14T17:19:13;7.90;;;5.33;;
66581;SDS011;53438;48.898;2.308;2023-06-14T17:21:39;6.07;;;5.20;;
66581;SDS011;53438;48.898;2.308;2023-06-14T17:24:07;7.55;;;5.40;;
66581;SDS011;53438;48.898;2.308;2023-06-14T17:26:32;5.93;;;5.33;;
66581;SDS011;53438;48.898;2.308;2023-06-14T17:28:57;5.20;;;4.67;;
66581;SDS011;53438;48.898;2.308;2023-06-14T17:31:23;6.87;;;4.67;;
66581;SDS011;53438;48.898;2.308;2023-06-14T17:33:48;9.33;;;5.13;;
66581;SDS011;53438;48.898;2.308;2023-06-14T17:36:13;6.73;;;5.23;;
66581;SDS011;53438;48.898;2.308;2023-06-14T17:38:39;5.43;;;4.77;;
66581;SDS011;53438;48.898;2.308;2023-06-14T17:41:04;9.30;;;5.07;;
66581;SDS011;53438;48.898;2.308;2023-06-14T17:43:37;7.10;;;4.93;;
66581;SDS011;53438;48.898;2.308;2023-06-14T17:46:02;6.75;;;5.35;;
66581;SDS011;53438;48.898;2.308;2023-06-14T17:48:30;9.13;;;5.23;;
66581;SDS011;53438;48.898;2.308;2023-06-14T17:51:03;6.45;;;4.45;;
66581;SDS011;53438;48.898;2.308;2023-06-14T17:53:29;7.75;;;5.65;;
66581;SDS011;53438;48.898;2.308;2023-06-14T17:55:54;7.05;;;5.00;;